Rogers Spring, Nevada Weather observations

Data are for 10 minute period ending at time listed.
 Day   Time   Solar   Ave.   Ave.  Ave.  Vector  Max.   Baro.   Total    
  of    of     Rad.   Air    Rel.  Wind   Wind   Wind  Press.  Precip.   
Year   Day            Temp.  Hum.  Speed  Dir.   Gust                    
2014   (PST)  Kw/m2    F      %     mph   deg.    mph    mb.     in.     
-------------------------------------------------------------------------
 108   16:50   0.16   76.4    16    6.5   176    11.4   928.4    0.00 
 108   17:00   0.24   77.2    16    6.4   173    12.3   928.4    0.00 
 108   17:10   0.20   77.6    16    7.7   172    12.9   928.4    0.00 
 108   17:20   0.12   76.5    16    7.0   178    13.4   928.4    0.00 
 108   17:30   0.12   76.1    16    7.8   177    13.4   928.4    0.00 
 108   17:40   0.14   76.7    16    6.5   174    10.6   928.4    0.00 
 108   17:50   0.09   76.0    17    5.6   168     9.4   928.6    0.00 
 108   18:00   0.06   75.4    18    5.5   166     9.5   928.6    0.00 
 108   18:10   0.04   74.8    18    4.2   156     8.8   928.6    0.00 
 108   18:20   0.02   73.7    19    3.2   153     5.8   928.6    0.00 
 108   18:30   0.01   72.1    20    2.6   156     4.8   928.7    0.00 
 108   18:40   0.00   71.1    22    2.8   147     4.3   928.7    0.00 
 108   18:50   0.00   70.4    22    2.1   155     3.9   928.9    0.00 
 108   19:00   0.00   69.8    24    2.4   145     5.4   929.0    0.00 
 108   19:10   0.00   70.5    23    2.8   143     5.8   929.1    0.00 
 108   19:20   0.00   71.1    23    3.1   146     6.4   929.2    0.00 
 108   19:30   0.00   71.0    22    3.1   145     6.3   929.3    0.00 
 108   19:40   0.00   71.0    22    4.0   155    10.4   929.5    0.00 
 108   19:50   0.00   70.8    22    4.4   158     7.6   929.6    0.00 
 108   20:00   0.00   69.3    23    3.4   157     5.4   929.7    0.00 
 108   20:10   0.00   67.8    25    3.0   156     4.4   929.8    0.00 
 108   20:20   0.00   67.0    25    2.8   163     6.0   929.9    0.00 
 108   20:30   0.00   66.7    26    2.2   190     3.4   929.9    0.00 
 108   20:40   0.00   64.5    28    2.0   153     3.0   929.9    0.00 
 108   20:50   0.00   64.1    28    2.2   141     3.0   929.9    0.00 
 108   21:00   0.00   65.1    28    2.8   138     6.1   929.9    0.00 
 108   21:10   0.00   66.8    26    3.5   161     6.2   929.9    0.00 
 108   21:20   0.00   66.2    26    3.0   159     5.7   929.9    0.00 
 108   21:30   0.00   65.9    26    3.4   174     7.7   929.9    0.00 
 108   21:40   0.00   66.9    26    4.0   190     9.2   930.0    0.00 
 108   21:50   0.00   66.2    26    3.8   192     8.8   930.1    0.00 
 108   22:00   0.00   65.8    27    3.8   185     7.5   930.1    0.00 
 108   22:10   0.00   66.6    26    4.2   180     8.1   930.1    0.00 
 108   22:20   0.00   67.6    25    4.5   185    10.9   930.2    0.00 
 108   22:30   0.00   66.3    26    4.0   196     6.7   930.3    0.00 
 108   22:40   0.00   66.5    26    5.3   177    11.3   930.3    0.00 
 108   22:50   0.00   68.4    25    6.0   172    12.6   930.3    0.00 
 108   23:00   0.00   67.9    25    4.3   162     6.8   930.3    0.00 
 108   23:10   0.00   67.2    26    5.2   163    10.4   930.3    0.00 
 108   23:20   0.00   67.5    26    5.1   163     9.0   930.3    0.00 
 108   23:30   0.00   67.4    26    5.2   164     8.8   930.3    0.00 
 108   23:40   0.00   67.7    26    5.9   158    10.1   930.3    0.00 
 108   23:50   0.00   67.7    26    5.0   160     8.4   930.5    0.00 
 109    0:00   0.00   66.8    28    4.7   160     7.2   930.5    0.00 
 109    0:10   0.00   66.0    29    3.8   154     8.2   930.6    0.00 
 109    0:20   0.00   65.9    30    3.7   154     5.8   930.6    0.00 
 109    0:30   0.00   65.9    30    3.4   154     5.8   930.5    0.00 
 109    0:40   0.00   64.8    30    2.6   172     4.2   930.5    0.00 
 109    0:50   0.00   63.8    32    3.0   161     6.0   930.5    0.00 
 109    1:00   0.00   64.2    32    3.2   155     5.8   930.4    0.00 
 109    1:10   0.00   64.3    32    2.3   143     5.0   930.4    0.00 
 109    1:20   0.00   64.5    33    0.4   146     2.1   930.4    0.00 
 109    1:30   0.00   61.5    36    0.9   319     2.1   930.4    0.00 
 109    1:40   0.00   56.8    42    1.0   279     2.5   930.3    0.00 
 109    1:50   0.00   55.4    46    0.3   260     1.4   930.3    0.00 
 109    2:00   0.00   55.1    46    0.5   294     1.6   930.3    0.00 
 109    2:10   0.00   54.9    47    0.4    59     1.2   930.3    0.00 
 109    2:20   0.00   55.1    47    1.9    84     2.9   930.2    0.00 
 109    2:30   0.00   55.0    46    1.5    81     2.5   930.3    0.00 
 109    2:40   0.00   53.0    49    1.5    56     2.3   930.3    0.00 
 109    2:50   0.00   52.1    50    0.8    14     2.3   930.4    0.00 
 109    3:00   0.00   52.6    49    1.6    96     2.9   930.5    0.00 
 109    3:10   0.00   52.8    49    0.9   223     3.9   930.6    0.00 
 109    3:20   0.00   51.7    51    1.6   188     3.9   930.7    0.00 
 109    3:30   0.00   55.4    45    3.3   166     4.8   930.7    0.00 
 109    3:40   0.00   59.1    40    3.9   171     5.9   930.7    0.00 
 109    3:50   0.00   60.8    37    4.5   165     7.5   930.8    0.00 
 109    4:00   0.00   61.0    37    4.2   167     6.7   930.8    0.00 
 109    4:10   0.00   59.7    39    2.4   177     4.7   930.8    0.00 
 109    4:20   0.00   58.0    41    1.4   191     2.6   930.9    0.00 
 109    4:30   0.00   56.9    44    1.5   189     4.5   931.0    0.00 
 109    4:40   0.00   55.8    45    1.3   241     3.9   931.1    0.00 
 109    4:50   0.00   52.4    51    1.8    36     3.4   931.2    0.00 
 109    5:00   0.00   53.0    50    2.4    70     3.7   931.3    0.00 
 109    5:10   0.00   53.4    49    1.2   116     3.1   931.4    0.00 
 109    5:20   0.01   53.1    52    1.0    82     2.3   931.5    0.00 
 109    5:30   0.03   55.5    49    0.7    92     2.3   931.7    0.00 
 109    5:40   0.05   56.8    48    1.8    97     4.0   931.9    0.00 
 109    5:50   0.08   56.9    45    2.4    41     3.8   932.0    0.00 
 109    6:00   0.11   55.8    45    3.3    47     5.0   932.2    0.00 
 109    6:10   0.14   56.4    44    2.6    66     4.7   932.4    0.00 
 109    6:20   0.17   58.5    41    2.2    77     3.8   932.5    0.00 
 109    6:30   0.20   60.7    39    2.4    62     3.8   932.6    0.00 
 109    6:40   0.24   63.7    36    1.3    90     2.9   932.6    0.00 
 109    6:50   0.28   66.0    32    1.7    50     3.7   932.8    0.00 
 109    7:00   0.31   67.5    30    1.7    61     3.1   933.0    0.00 
 109    7:10   0.35   68.0    30    2.1    89     3.8   933.2    0.00 
 109    7:20   0.38   69.5    29    1.7    92     3.7   933.3    0.00 
 109    7:30   0.42   70.7    28    1.7    98     3.8   933.5    0.00 
 109    7:40   0.45   72.0    28    1.5   124     6.7   933.5    0.00 
 109    7:50   0.48   71.7    30    2.9   152     6.1   933.5    0.00 
 109    8:00   0.52   72.2    29    2.9   172     7.2   933.4    0.00 
 109    8:10   0.55   72.7    28    3.5   181     8.3   933.4    0.00 
 109    8:20   0.59   73.7    28    5.4   176     9.2   933.4    0.00 
 109    8:30   0.62   74.9    27    5.3   176    10.9   933.5    0.00 
 109    8:40   0.66   75.0    27    5.0   171     9.8   933.7    0.00 
 109    8:50   0.69   75.5    27    5.1   184     9.4   933.7    0.00 
 109    9:00   0.73   75.5    26    4.5   188    10.3   933.8    0.00 
 109    9:10   0.74   76.0    26    3.5   173     8.0   933.8    0.00 
 109    9:20   0.74   76.3    26    2.4   183     7.6   933.8    0.00 
 109    9:30   0.73   76.9    25    2.9   177     8.0   933.8    0.00 
 109    9:40   0.81   77.6    24    3.5   152     9.1   933.7    0.00 
 109    9:50   0.86   78.2    24    4.3   165     9.9   933.6    0.00 
 109   10:00   0.82   78.0    24    2.7   226     9.2   933.5    0.00 
 109   10:10   0.80   78.3    23    4.0   154    10.2   933.5    0.00 
 109   10:20   0.80   78.3    24    3.9   230     8.0   933.5    0.00 
 109   10:30   0.88   79.1    23    4.9   199     9.6   933.4    0.00 
 109   10:40   0.90   79.4    22    4.5   218     9.6   933.3    0.00 
 109   10:50   0.93   79.4    22    3.6   196     7.2   933.2    0.00 
 109   11:00   0.94   80.7    22    3.4   136     9.2   933.2    0.00 
 109   11:10   0.95   80.5    22    3.1   122     9.3   933.0    0.00 
 109   11:20   0.94   80.9    22    4.1   169     7.5   932.8    0.00 
 109   11:30   0.92   81.6    21    4.2   165     9.9   932.7    0.00 
 109   11:40   0.94   82.1    20    4.2   160     9.4   932.5    0.00 
 109   11:50   0.94   81.5    20    4.5   230     9.8   932.4    0.00 
 109   12:00   0.97   81.8    19    3.0   149     8.3   932.3    0.00 
 109   12:10   0.97   83.0    18    4.1   174    11.0   932.2    0.00 
 109   12:20   0.97   82.6    18    4.3   186     9.9   932.2    0.00 
 109   12:30   0.95   83.1    18    3.9   213    10.5   932.1    0.00 
 109   12:40   0.81   83.1    17    5.9   172    11.2   932.1    0.00 
 109   12:50   0.80   82.8    17    3.9   194     8.9   932.1    0.00 
 109   13:00   0.88   83.4    16    4.2   157     9.2   931.9    0.00 
 109   13:10   0.84   83.6    16    4.1   183    11.0   931.8    0.00 
 109   13:20   0.79   83.4    15    5.2   166    13.2   931.7    0.00 
 109   13:30   0.88   83.7    15    4.4   136    10.4   931.5    0.00 
 109   13:40   0.90   84.7    15    4.4   218     8.1   931.3    0.00 
 109   13:50   0.87   84.3    15    3.0   237     9.0   931.2    0.00 
 109   14:00   0.80   85.0    15    5.1   189    11.4   931.1    0.00 
 109   14:10   0.71   84.4    15    5.5   163    11.2   931.0    0.00 
 109   14:20   0.72   84.1    16    3.6   145     8.3   930.9    0.00 
 109   14:30   0.78   84.8    16    3.7   169     9.6   930.7    0.00 
 109   14:40   0.70   85.0    16    5.6   181    12.9   930.7    0.00 
 109   14:50   0.58   84.5    16    3.4   234     8.6   930.6    0.00 
 109   15:00   0.63   84.9    16    5.3   152    12.1   930.5    0.00 
 109   15:10   0.58   84.8    15    4.1   167     9.9   930.5    0.00 
 109   15:20   0.59   85.1    16    4.4   209     9.6   930.4    0.00 
 109   15:30   0.59   85.9    16    4.5   235    12.1   930.4    0.00 
 109   15:40   0.56   85.4    15    3.8   198    10.6   930.4    0.00 
 109   15:50   0.53   85.8    15    3.2   166    10.0   930.4    0.00 
 109   16:00   0.48   85.5    15    6.3   192    10.8   930.4    0.00 
 109   16:10   0.44   85.2    15    3.8   190     8.4   930.3    0.00 
 109   16:20   0.39   85.3    15    5.7   169    12.1   930.3    0.00 
 109   16:30   0.35   84.7    15    4.4   160     9.4   930.3    0.00 
 109   16:40   0.31   84.8    15    4.2   173     9.0   930.3    0.00 

Return to Rogers Spring graphs page.


Western Regional Climate Center,wrcc@dri.edu